Terminal Aerodrome Forecast
Issued by NWS

Home | Current Version | Previous Version | Text Only | Print | Product List | Glossary On
Versions: 1 2 3 4 5 6 7 8 9 10 11 12 13 14 15 16 17 18 19
000
FTUS44 KOUN 191743
TAFLAW
TAF
KLAW 191743Z 1918/2018 20016G25KT P6SM SCT120
     FM200000 18015KT P6SM BKN025
      TEMPO 2002/2006 3SM -TSRA BR BKN015CB
     FM201000 17013KT 5SM BR OVC009=

USA.gov is the U.S. government's official web portal to all federal, state and local government web resources and services.